Calgary International Airport
CYYC : now visible

Airfield :











YOU CAN JOIN US ON...

 
LOGIN :

Register | Disclaimer

   EN    FR    IT 

 









Legend :    VFR   Marginal VFR   IFR   Intensive IFR   Very Intensive IFR
Visi :
Ceiling :
>= 8 km
>= 3000ft
5 to 8 km
1000 to 3000 ft
1500m to 5 km
500 to 1000 ft
800 to 1500m
200 to 500 ft
< 800m
< 200 ft
Symbols :   Thunderstorms  Fog  Heavy snow  Heavy precipitations  Wind > 20 kt






- Airport Elevation : 3557 ft
- IATA code : YYC


CYYC - Calgary International

CURRENT METAR :
  • 152200Z 27015G24KT 40SM FEW070 FEW090 FEW170 FEW200 08/M08 A2997 RMK CU1AC1AC1CI1 CU TR AC TR AC TR CI TR SLP195

EXPIRED METARs :
  • 152100Z 27014KT 40SM FEW090 FEW120 FEW180 09/M07 A2996 RMK AC1AC1AC1 AC TR AC TR SLP193 DENSITY ALT 3700FT
  • 152000Z 29015G21KT 40SM FEW060 FEW180 FEW200 SCT220 07/M06 A2996 RMK CU1AC1CC1CI1 CU TR SLP193

TAF TAF CYYC
Valid from the 15 at 21:00 until the 16 at 18:00 UTC


152045Z 1521/1618 28015G30KT P6SM FEW090 SCT240
FM160300 28014G24KT P6SM SKC
FM161600 29008KT P6SM FEW220 RMK NXT FCST BY 160000Z
CZEG FIR / North America



MET'MAP, your aeronautical weather chart ! - Copyright ORBIFLY December 2007 - Disclaimer

ORBIFLY MET'MAP TEAM :

Programming & Development : Alexandra Zaïnal
Concept & original design : Baudouin d'Aumeries
Assistance for programming : Marc-Olivier Méhu
Technical & hardware support : Manuel Goepfert

Contact : metmap@orbifly.com




SOURCES & CREDITS :

   NOAA       Earth
Advisory